Time;durP1;ratioP1;P1;durP2;ratioP2;P2;SDS_P1;SDS_P2;PMS_P1;PMS_P2;Temp;Humidity;BMP_temperature;BMP_pressure;BME280_temperature;BME280_humidity;BME280_pressure;Samples;Min_cycle;Max_cycle;Signal;HPM_P1;HPM_P2
2024/01/06 00:01:29;;;;;;;16.73;8.65;;;6.70;99.90;;;;;;5109857;28;20031;-71
2024/01/06 00:03:55;;;;;;;16.23;9.02;;;6.70;99.90;;;;;;5111843;28;20023;-70
2024/01/06 00:06:21;;;;;;;15.65;8.75;;;6.80;99.90;;;;;;5112568;28;20031;-71
2024/01/06 00:08:53;;;;;;;15.85;8.30;;;6.80;99.90;;;;;;5111953;28;20488;-71
2024/01/06 00:11:22;;;;;;;18.77;9.15;;;6.80;99.90;;;;;;5111599;28;20039;-71
2024/01/06 00:13:47;;;;;;;18.63;9.05;;;6.80;99.90;;;;;;5112156;28;20043;-71
2024/01/06 00:16:13;;;;;;;15.02;8.15;;;6.80;99.90;;;;;;5110570;28;20032;-70
2024/01/06 00:18:39;;;;;;;17.20;8.32;;;6.80;99.90;;;;;;5111523;28;20028;-71
2024/01/06 00:21:05;;;;;;;11.50;7.25;;;6.80;99.90;;;;;;5112220;28;20133;-71
2024/01/06 00:23:31;;;;;;;10.77;6.60;;;6.80;99.90;;;;;;5111917;28;20028;-71
2024/01/06 00:25:56;;;;;;;12.23;8.02;;;6.70;99.90;;;;;;5112646;28;20035;-70
2024/01/06 00:28:22;;;;;;;17.75;8.02;;;6.70;99.90;;;;;;5103743;28;20435;-71
2024/01/06 00:30:48;;;;;;;9.68;5.97;;;6.70;99.90;;;;;;5110787;28;20020;-70
2024/01/06 00:33:13;;;;;;;15.27;5.95;;;6.70;99.90;;;;;;5104476;28;20063;-70
2024/01/06 00:35:39;;;;;;;16.17;6.72;;;6.60;99.90;;;;;;5111058;28;20031;-70
2024/01/06 00:38:04;;;;;;;8.48;6.20;;;6.60;99.90;;;;;;5108494;28;20025;-71
2024/01/06 00:40:32;;;;;;;13.20;6.57;;;6.60;99.90;;;;;;5112268;28;20023;-70
2024/01/06 00:42:57;;;;;;;9.77;5.97;;;6.60;99.90;;;;;;5112481;28;20069;-71
2024/01/06 00:45:23;;;;;;;13.13;5.68;;;6.50;99.90;;;;;;5111585;28;20381;-71
2024/01/06 00:47:48;;;;;;;11.77;5.45;;;6.50;99.90;;;;;;5112223;28;20028;-71
2024/01/06 00:50:14;;;;;;;10.77;5.53;;;6.50;99.90;;;;;;5112485;28;20019;-70
2024/01/06 00:52:39;;;;;;;5.90;4.80;;;6.50;99.90;;;;;;5111665;28;20418;-70
2024/01/06 00:55:05;;;;;;;7.32;5.25;;;6.50;99.90;;;;;;5110623;28;20093;-70
2024/01/06 00:57:31;;;;;;;11.02;5.13;;;6.50;99.90;;;;;;5112497;28;20024;-70
2024/01/06 00:59:56;;;;;;;5.47;4.78;;;6.40;99.90;;;;;;5112042;28;20690;-71
2024/01/06 01:02:22;;;;;;;6.43;4.60;;;6.40;99.90;;;;;;5112467;28;20031;-70
2024/01/06 01:04:47;;;;;;;9.85;5.30;;;6.40;99.90;;;;;;5112243;28;20048;-71
2024/01/06 01:07:13;;;;;;;10.73;6.20;;;6.40;99.90;;;;;;5106150;28;20039;-70
2024/01/06 01:09:39;;;;;;;7.60;6.03;;;6.40;99.90;;;;;;5096246;28;20016;-70
2024/01/06 01:12:04;;;;;;;10.30;6.57;;;6.40;99.90;;;;;;5109236;28;20027;-70
2024/01/06 01:14:30;;;;;;;10.20;7.20;;;6.40;99.90;;;;;;5097968;28;20435;-69
2024/01/06 01:16:55;;;;;;;10.65;6.18;;;6.40;99.90;;;;;;5095885;28;20424;-71
2024/01/06 01:19:21;;;;;;;10.13;5.85;;;6.40;99.90;;;;;;5095874;28;20093;-70
2024/01/06 01:21:46;;;;;;;13.10;6.05;;;6.40;99.90;;;;;;5107594;28;20031;-70
2024/01/06 01:24:12;;;;;;;9.15;5.43;;;6.40;99.90;;;;;;5114803;28;20027;-70
2024/01/06 01:26:37;;;;;;;7.93;4.07;;;6.40;99.90;;;;;;5114292;28;20039;-70
2024/01/06 01:29:03;;;;;;;8.35;4.43;;;6.30;99.90;;;;;;5111105;28;20076;-70
2024/01/06 01:31:29;;;;;;;8.40;5.40;;;6.30;99.90;;;;;;5114319;28;20049;-72
2024/01/06 01:33:54;;;;;;;12.25;5.07;;;6.30;99.90;;;;;;5114204;28;20084;-70
2024/01/06 01:36:20;;;;;;;9.27;5.07;;;6.30;99.90;;;;;;5111121;28;20496;-70
2024/01/06 01:38:45;;;;;;;8.88;5.82;;;6.30;99.90;;;;;;5111087;28;20023;-71
2024/01/06 01:41:11;;;;;;;10.52;6.18;;;6.30;99.90;;;;;;5095733;28;20020;-70
2024/01/06 01:43:37;;;;;;;14.25;5.82;;;6.20;99.90;;;;;;5106831;28;20035;-72
2024/01/06 01:46:03;;;;;;;8.82;6.38;;;6.20;99.90;;;;;;5110601;28;20031;-70
2024/01/06 01:48:29;;;;;;;12.60;5.90;;;6.20;99.90;;;;;;5110564;28;20035;-71
2024/01/06 01:50:54;;;;;;;13.05;6.63;;;6.20;99.90;;;;;;5094684;28;20529;-71
2024/01/06 01:53:21;;;;;;;8.20;6.55;;;6.20;99.90;;;;;;5095126;28;20040;-71
2024/01/06 01:55:47;;;;;;;12.50;6.78;;;6.20;99.90;;;;;;5095645;28;20077;-70
2024/01/06 01:58:15;;;;;;;12.80;6.20;;;6.10;99.90;;;;;;5112498;28;20122;-71
2024/01/06 02:00:41;;;;;;;16.30;7.10;;;6.20;99.90;;;;;;5114124;28;20475;-70
2024/01/06 02:03:09;;;;;;;11.73;6.55;;;6.10;99.90;;;;;;5107164;28;20036;-71
2024/01/06 02:05:34;;;;;;;16.02;7.90;;;6.10;99.90;;;;;;5094694;28;20044;-70
2024/01/06 02:08:00;;;;;;;11.25;7.00;;;6.10;99.90;;;;;;5095101;28;20069;-71
2024/01/06 02:10:25;;;;;;;14.60;8.55;;;6.10;99.90;;;;;;5097122;28;20024;-71
2024/01/06 02:12:51;;;;;;;12.20;7.22;;;6.10;99.90;;;;;;5110476;28;20024;-71
2024/01/06 02:15:18;;;;;;;12.85;6.65;;;6.10;99.90;;;;;;5102101;28;20051;-71
2024/01/06 02:17:43;;;;;;;15.48;7.38;;;6.10;99.90;;;;;;5114936;28;20039;-71
2024/01/06 02:20:11;;;;;;;12.90;6.80;;;6.10;99.90;;;;;;5093550;28;20028;-71
2024/01/06 02:22:36;;;;;;;10.68;5.95;;;6.10;99.90;;;;;;5094483;28;20064;-71
2024/01/06 02:25:07;;;;;;;10.60;5.85;;;6.10;99.90;;;;;;5094906;28;20093;-71
2024/01/06 02:27:33;;;;;;;8.90;5.95;;;6.20;99.90;;;;;;5102784;28;20047;-71
2024/01/06 02:29:58;;;;;;;11.30;5.75;;;6.20;99.90;;;;;;5093672;28;20036;-71
2024/01/06 02:32:24;;;;;;;10.57;5.95;;;6.20;99.90;;;;;;5094715;28;20024;-71
2024/01/06 02:34:49;;;;;;;11.00;6.63;;;6.10;99.90;;;;;;5094501;28;20032;-71
2024/01/06 02:37:15;;;;;;;10.70;5.90;;;6.20;99.90;;;;;;5094768;28;20028;-71
2024/01/06 02:39:40;;;;;;;10.25;6.55;;;6.20;99.90;;;;;;5094751;28;20032;-71
2024/01/06 02:42:06;;;;;;;11.48;5.85;;;6.20;99.90;;;;;;5094790;28;20032;-71
2024/01/06 02:44:32;;;;;;;9.27;5.72;;;6.20;99.90;;;;;;5114716;28;20062;-73
2024/01/06 02:46:57;;;;;;;10.77;5.88;;;6.20;99.90;;;;;;5112835;28;20038;-71
2024/01/06 02:49:23;;;;;;;10.68;6.45;;;6.20;99.90;;;;;;5113952;28;20031;-71
2024/01/06 02:51:48;;;;;;;8.60;5.82;;;6.20;99.90;;;;;;5094126;28;20044;-71
2024/01/06 02:54:14;;;;;;;10.25;6.00;;;6.30;99.90;;;;;;5102091;28;20130;-71
2024/01/06 02:56:40;;;;;;;11.48;6.18;;;6.30;99.90;;;;;;5114201;28;20035;-71
2024/01/06 02:59:05;;;;;;;12.00;6.60;;;6.20;99.90;;;;;;5096189;28;20073;-71
2024/01/06 03:01:32;;;;;;;11.57;5.80;;;6.20;99.90;;;;;;5113203;28;20019;-71
2024/01/06 03:03:57;;;;;;;14.32;6.60;;;6.10;99.90;;;;;;5114262;28;20066;-71
2024/01/06 03:06:23;;;;;;;10.63;5.93;;;6.10;99.90;;;;;;5114372;28;20055;-71
2024/01/06 03:08:49;;;;;;;14.20;7.00;;;6.10;99.90;;;;;;5113837;28;20035;-71
2024/01/06 03:11:15;;;;;;;14.05;7.25;;;6.00;99.90;;;;;;5113428;28;20027;-71
2024/01/06 03:13:40;;;;;;;15.05;7.28;;;6.00;99.90;;;;;;5114116;28;20043;-71
2024/01/06 03:16:06;;;;;;;13.60;6.63;;;5.90;99.90;;;;;;5111078;28;20036;-71
2024/01/06 03:18:32;;;;;;;10.68;6.32;;;5.90;99.90;;;;;;5094628;28;20846;-71
2024/01/06 03:20:57;;;;;;;11.60;6.35;;;5.80;99.90;;;;;;5114196;28;20027;-71
2024/01/06 03:23:23;;;;;;;15.55;6.15;;;5.80;99.90;;;;;;5114034;28;20144;-70
2024/01/06 03:25:48;;;;;;;9.90;6.00;;;5.80;99.90;;;;;;5097064;28;20105;-71
2024/01/06 03:28:14;;;;;;;11.82;6.07;;;5.80;99.90;;;;;;5093641;28;20077;-71
2024/01/06 03:30:40;;;;;;;10.82;6.40;;;5.80;99.90;;;;;;5092787;28;20035;-71
2024/01/06 03:33:06;;;;;;;9.73;5.60;;;5.80;99.90;;;;;;5093258;28;20040;-71
2024/01/06 03:35:31;;;;;;;9.35;5.18;;;5.90;99.90;;;;;;5105406;28;20042;-71
2024/01/06 03:37:57;;;;;;;8.10;4.93;;;5.90;99.90;;;;;;5113868;28;20024;-71
2024/01/06 03:40:23;;;;;;;7.38;4.93;;;5.90;99.90;;;;;;5113354;28;20043;-71
2024/01/06 03:42:48;;;;;;;11.13;5.40;;;5.90;99.90;;;;;;5103841;28;20069;-70
2024/01/06 03:45:14;;;;;;;8.80;5.22;;;6.00;99.90;;;;;;5093124;28;20464;-71
2024/01/06 03:47:39;;;;;;;11.98;5.95;;;6.00;99.90;;;;;;5093377;28;20028;-71
2024/01/06 03:50:05;;;;;;;12.35;7.20;;;6.00;99.90;;;;;;5093423;28;20028;-71
2024/01/06 03:52:31;;;;;;;15.68;6.45;;;6.00;99.90;;;;;;5091918;28;20039;-71
2024/01/06 03:54:56;;;;;;;12.10;5.95;;;6.00;99.90;;;;;;5092029;28;20035;-70
2024/01/06 03:57:22;;;;;;;10.57;5.18;;;6.00;99.90;;;;;;5093121;28;20028;-71
2024/01/06 03:59:47;;;;;;;9.43;5.95;;;5.90;99.90;;;;;;5092961;28;20028;-70
2024/01/06 04:02:13;;;;;;;13.35;6.38;;;5.90;99.90;;;;;;5092631;28;20543;-71
2024/01/06 04:04:39;;;;;;;13.38;5.68;;;5.90;99.90;;;;;;5092501;28;20048;-71
2024/01/06 04:07:06;;;;;;;9.02;5.95;;;5.90;99.90;;;;;;5092574;28;20028;-71
2024/01/06 04:09:32;;;;;;;15.43;6.70;;;5.80;99.90;;;;;;5087989;28;20035;-70
2024/01/06 04:11:57;;;;;;;9.48;6.07;;;5.80;99.90;;;;;;5092967;28;20023;-71
2024/01/06 04:14:23;;;;;;;12.20;6.18;;;5.80;99.90;;;;;;5092840;28;20452;-71
2024/01/06 04:16:48;;;;;;;8.43;6.20;;;5.80;99.90;;;;;;5093040;28;20063;-71
2024/01/06 04:19:15;;;;;;;8.15;5.60;;;5.80;99.90;;;;;;5092435;28;20024;-71
2024/01/06 04:21:40;;;;;;;11.70;5.93;;;5.80;99.90;;;;;;5092644;28;20031;-71
2024/01/06 04:24:06;;;;;;;9.23;6.65;;;5.70;99.90;;;;;;5093202;28;20532;-71
2024/01/06 04:26:32;;;;;;;12.73;6.47;;;5.80;99.90;;;;;;5094588;28;20023;-70
2024/01/06 04:28:57;;;;;;;11.80;6.90;;;5.70;99.90;;;;;;5109165;28;20028;-71
2024/01/06 04:31:23;;;;;;;12.32;7.22;;;5.70;99.90;;;;;;5108955;28;20078;-71
2024/01/06 04:33:48;;;;;;;15.52;6.13;;;5.80;99.90;;;;;;5093449;28;20429;-71
2024/01/06 04:36:14;;;;;;;10.90;6.10;;;5.70;99.90;;;;;;5110758;28;20035;-71
2024/01/06 04:38:39;;;;;;;10.05;6.15;;;5.70;99.90;;;;;;5112616;28;20426;-71
2024/01/06 04:41:05;;;;;;;14.77;6.57;;;5.70;99.90;;;;;;5112812;28;20032;-71
2024/01/06 04:43:30;;;;;;;14.35;6.95;;;5.70;99.90;;;;;;5112514;28;20063;-71
2024/01/06 04:45:57;;;;;;;11.13;6.35;;;5.70;99.90;;;;;;5110855;28;20377;-71
2024/01/06 04:48:23;;;;;;;11.60;6.00;;;5.70;99.90;;;;;;5112715;28;20098;-71
2024/01/06 04:50:48;;;;;;;8.55;6.00;;;5.70;99.90;;;;;;5112595;28;20557;-71
2024/01/06 04:53:14;;;;;;;12.95;6.20;;;5.60;99.90;;;;;;5112137;28;20043;-71
2024/01/06 04:55:39;;;;;;;12.20;5.32;;;5.60;99.90;;;;;;5112709;28;20036;-71
2024/01/06 04:58:05;;;;;;;10.43;5.22;;;5.60;99.90;;;;;;5105642;28;20034;-71
2024/01/06 05:00:30;;;;;;;8.50;5.30;;;5.60;99.90;;;;;;5094688;28;20030;-71
2024/01/06 05:02:56;;;;;;;7.68;4.97;;;5.60;99.90;;;;;;5112695;28;20034;-71
2024/01/06 05:05:22;;;;;;;10.63;5.30;;;5.60;99.90;;;;;;5112845;28;20431;-71
2024/01/06 05:07:47;;;;;;;10.93;5.18;;;5.60;99.90;;;;;;5112588;28;20062;-71
2024/01/06 05:10:13;;;;;;;9.95;4.75;;;5.50;99.90;;;;;;5112393;28;20024;-71
2024/01/06 05:12:38;;;;;;;6.50;4.70;;;5.50;99.90;;;;;;5112710;28;20076;-71
2024/01/06 05:15:05;;;;;;;10.93;4.72;;;5.50;99.90;;;;;;5112450;28;20039;-70
2024/01/06 05:17:30;;;;;;;10.05;5.72;;;5.50;99.90;;;;;;5112783;28;20063;-71
2024/01/06 05:19:56;;;;;;;10.40;5.22;;;5.40;99.90;;;;;;5108964;28;20050;-70
2024/01/06 05:22:21;;;;;;;10.00;5.43;;;5.40;99.90;;;;;;5104152;28;20039;-72
2024/01/06 05:24:47;;;;;;;10.77;5.53;;;5.40;99.90;;;;;;5102880;28;20034;-70
2024/01/06 05:27:16;;;;;;;10.45;6.45;;;5.40;99.90;;;;;;5112594;28;20020;-72
2024/01/06 05:29:41;;;;;;;11.63;6.50;;;5.40;99.90;;;;;;5111600;28;20038;-71
2024/01/06 05:32:07;;;;;;;12.15;7.03;;;5.40;99.90;;;;;;5112690;28;20028;-71
2024/01/06 05:34:32;;;;;;;10.98;6.55;;;5.40;99.90;;;;;;5110729;28;20414;-70
2024/01/06 05:36:58;;;;;;;10.18;7.00;;;5.40;99.90;;;;;;5112329;28;20020;-70
2024/01/06 05:39:25;;;;;;;13.35;7.78;;;5.40;99.90;;;;;;5110086;28;20059;-71
2024/01/06 05:41:50;;;;;;;15.52;8.98;;;5.40;99.90;;;;;;5112162;28;20491;-70
2024/01/06 05:44:16;;;;;;;15.45;8.88;;;5.40;99.90;;;;;;5112053;28;20031;-70
2024/01/06 05:46:41;;;;;;;14.25;8.68;;;5.40;99.90;;;;;;5112196;28;20028;-70
2024/01/06 05:49:08;;;;;;;14.00;8.63;;;5.40;99.90;;;;;;5111833;28;20457;-70
2024/01/06 05:51:34;;;;;;;11.50;7.88;;;5.40;99.90;;;;;;5105526;28;20415;-70
2024/01/06 05:53:59;;;;;;;14.25;8.35;;;5.40;99.90;;;;;;5110593;28;20039;-70
2024/01/06 05:56:25;;;;;;;14.43;9.00;;;5.40;99.90;;;;;;5115712;28;20102;-71
2024/01/06 05:58:52;;;;;;;16.35;9.52;;;5.40;99.90;;;;;;5115649;28;20031;-70
2024/01/06 06:01:18;;;;;;;13.73;8.73;;;5.40;99.90;;;;;;5115347;28;20446;-71
2024/01/06 06:03:43;;;;;;;17.92;8.63;;;5.40;99.90;;;;;;5115032;28;20031;-70
2024/01/06 06:06:09;;;;;;;13.68;7.15;;;5.40;99.90;;;;;;5115083;28;20069;-70
2024/01/06 06:08:34;;;;;;;11.70;8.15;;;5.50;99.90;;;;;;5112607;28;20045;-70
2024/01/06 06:11:01;;;;;;;14.52;8.77;;;5.50;99.90;;;;;;5096506;28;20020;-70
2024/01/06 06:13:28;;;;;;;14.82;8.88;;;5.40;99.90;;;;;;5112245;28;20051;-71
2024/01/06 06:15:54;;;;;;;13.10;8.60;;;5.50;99.90;;;;;;5114410;28;20073;-70
2024/01/06 06:18:20;;;;;;;15.85;8.90;;;5.50;99.90;;;;;;5112118;28;20023;-71
2024/01/06 06:20:46;;;;;;;14.80;8.30;;;5.50;99.90;;;;;;5109169;28;20034;-71
2024/01/06 06:23:12;;;;;;;12.65;8.05;;;5.50;99.90;;;;;;5115151;28;20490;-69
2024/01/06 06:25:39;;;;;;;13.38;8.43;;;5.50;99.90;;;;;;5110744;28;20030;-72
2024/01/06 06:28:06;;;;;;;13.55;8.02;;;5.50;99.90;;;;;;5114495;28;20055;-71
2024/01/06 06:30:32;;;;;;;15.90;8.13;;;5.50;99.90;;;;;;5114412;28;20057;-70
2024/01/06 06:32:57;;;;;;;12.75;7.38;;;5.50;99.90;;;;;;5114644;28;20532;-70
2024/01/06 06:35:23;;;;;;;11.23;7.10;;;5.50;99.90;;;;;;5114743;28;20377;-71
2024/01/06 06:37:49;;;;;;;12.57;7.47;;;5.50;99.90;;;;;;5113231;28;20032;-71
2024/01/06 06:40:15;;;;;;;13.63;7.70;;;5.40;99.90;;;;;;5113530;28;20020;-70
2024/01/06 06:42:40;;;;;;;14.07;8.43;;;5.50;99.90;;;;;;5114341;28;20055;-70
2024/01/06 06:45:06;;;;;;;11.63;7.10;;;5.50;99.90;;;;;;5113151;28;21730;-70
2024/01/06 06:47:32;;;;;;;13.10;6.90;;;5.50;99.90;;;;;;5114411;28;20023;-71
2024/01/06 06:49:57;;;;;;;12.45;7.40;;;5.40;99.90;;;;;;5113880;28;20072;-71
2024/01/06 06:52:23;;;;;;;17.63;8.45;;;5.40;99.90;;;;;;5112977;28;20020;-71
2024/01/06 06:54:48;;;;;;;12.07;7.10;;;5.40;99.90;;;;;;5110836;28;20396;-71
2024/01/06 06:57:15;;;;;;;13.15;6.95;;;5.40;99.90;;;;;;5110423;28;20492;-71
2024/01/06 06:59:41;;;;;;;13.30;7.45;;;5.40;99.90;;;;;;5090416;28;20515;-70
2024/01/06 07:02:07;;;;;;;13.68;7.60;;;5.30;99.90;;;;;;5114282;28;20804;-71
2024/01/06 07:04:32;;;;;;;14.13;7.40;;;5.40;99.90;;;;;;5113280;28;20082;-71
2024/01/06 07:06:58;;;;;;;15.60;7.65;;;5.30;99.90;;;;;;5113659;28;20051;-71
2024/01/06 07:09:24;;;;;;;9.95;6.60;;;5.40;99.90;;;;;;5113562;28;20476;-71
2024/01/06 07:11:50;;;;;;;13.20;7.35;;;5.40;99.90;;;;;;5113365;28;20028;-71
2024/01/06 07:14:16;;;;;;;12.15;7.35;;;5.40;99.90;;;;;;5113477;28;20127;-71
2024/01/06 07:16:41;;;;;;;11.75;6.55;;;5.40;99.90;;;;;;5112722;28;20751;-71
2024/01/06 07:19:07;;;;;;;14.52;7.03;;;5.40;99.90;;;;;;5099429;28;20069;-71
2024/01/06 07:21:32;;;;;;;12.68;6.40;;;5.40;99.90;;;;;;5111801;28;20135;-71
2024/01/06 07:23:58;;;;;;;15.02;6.88;;;5.40;99.90;;;;;;5111958;28;20102;-71
2024/01/06 07:26:23;;;;;;;13.00;5.88;;;5.40;99.90;;;;;;5093586;28;20027;-71
2024/01/06 07:28:49;;;;;;;11.18;6.18;;;5.40;99.90;;;;;;5109685;28;20038;-71
2024/01/06 07:31:14;;;;;;;13.63;6.47;;;5.30;99.90;;;;;;5109340;28;20073;-71
2024/01/06 07:33:40;;;;;;;13.05;6.90;;;5.20;99.90;;;;;;5111557;28;20069;-71
2024/01/06 07:36:06;;;;;;;13.80;7.30;;;5.20;99.90;;;;;;5113063;28;20016;-71
2024/01/06 07:38:31;;;;;;;11.10;6.70;;;5.10;99.90;;;;;;5113876;28;20039;-71
2024/01/06 07:40:57;;;;;;;15.07;6.57;;;5.10;99.90;;;;;;5113459;28;20067;-70
2024/01/06 07:43:22;;;;;;;12.82;6.63;;;5.10;99.90;;;;;;5113778;28;20070;-71
2024/01/06 07:45:49;;;;;;;13.48;6.75;;;5.10;99.90;;;;;;5114497;28;20111;-71
2024/01/06 07:48:15;;;;;;;13.70;7.65;;;5.00;99.90;;;;;;5113751;28;20050;-71
2024/01/06 07:50:40;;;;;;;13.85;6.88;;;5.00;99.90;;;;;;5112928;28;20461;-71
2024/01/06 07:53:06;;;;;;;13.77;7.47;;;5.00;99.90;;;;;;5112726;28;20429;-71
2024/01/06 07:55:31;;;;;;;14.57;8.07;;;5.00;99.90;;;;;;5103894;28;20032;-71
2024/01/06 07:57:57;;;;;;;13.45;7.88;;;5.00;99.90;;;;;;5093262;28;20067;-70
2024/01/06 08:00:22;;;;;;;15.25;7.95;;;5.10;99.90;;;;;;5106507;28;20080;-70
2024/01/06 08:02:48;;;;;;;14.63;8.77;;;5.10;99.90;;;;;;5111376;28;20036;-71
2024/01/06 08:05:13;;;;;;;16.85;8.52;;;5.10;99.90;;;;;;5111578;28;20103;-70
2024/01/06 08:07:39;;;;;;;16.00;8.32;;;5.10;99.90;;;;;;5112659;28;20024;-70
2024/01/06 08:10:05;;;;;;;16.00;9.60;;;5.10;99.90;;;;;;5112433;28;20130;-70
2024/01/06 08:12:31;;;;;;;16.38;9.05;;;5.10;99.90;;;;;;5112449;28;20020;-70
2024/01/06 08:14:57;;;;;;;15.52;8.52;;;5.10;99.90;;;;;;5112688;28;20039;-70
2024/01/06 08:17:22;;;;;;;13.15;7.68;;;5.10;99.90;;;;;;5112003;28;20130;-71
2024/01/06 08:19:48;;;;;;;14.15;8.27;;;5.10;99.90;;;;;;5113012;28;20062;-70
2024/01/06 08:22:14;;;;;;;12.23;7.20;;;5.10;99.90;;;;;;5112002;28;20102;-70
2024/01/06 08:24:39;;;;;;;15.43;7.90;;;5.10;99.90;;;;;;5112630;28;20034;-70
2024/01/06 08:27:05;;;;;;;11.48;6.82;;;5.20;99.90;;;;;;5111632;28;20426;-70
2024/01/06 08:29:31;;;;;;;13.32;6.93;;;5.20;99.90;;;;;;5093289;28;20425;-71
2024/01/06 08:31:56;;;;;;;16.73;6.95;;;5.20;99.90;;;;;;5111750;28;20144;-71
2024/01/06 08:34:22;;;;;;;13.75;6.95;;;5.20;99.90;;;;;;5112457;28;20046;-71
2024/01/06 08:36:48;;;;;;;13.48;7.30;;;5.20;99.90;;;;;;5112332;28;20096;-71
2024/01/06 08:39:14;;;;;;;15.20;6.78;;;5.20;99.90;;;;;;5112365;28;20034;-71
2024/01/06 08:41:40;;;;;;;15.57;7.13;;;5.30;99.90;;;;;;5111702;28;20031;-71
2024/01/06 08:44:05;;;;;;;12.82;6.30;;;5.20;99.90;;;;;;5111837;28;20023;-71
2024/01/06 08:46:31;;;;;;;13.05;6.30;;;5.30;99.90;;;;;;5111825;28;20092;-71
2024/01/06 08:48:57;;;;;;;12.38;6.82;;;5.30;99.90;;;;;;5110739;28;20405;-71
2024/01/06 08:51:23;;;;;;;13.43;6.55;;;5.30;99.90;;;;;;5094726;28;20427;-71
2024/01/06 08:53:49;;;;;;;12.02;6.68;;;5.40;99.90;;;;;;5092059;28;20473;-71
2024/01/06 08:56:16;;;;;;;11.88;6.57;;;5.40;99.90;;;;;;5108499;28;20030;-71
2024/01/06 08:58:41;;;;;;;14.15;6.38;;;5.40;99.90;;;;;;5111386;28;20055;-72
2024/01/06 09:01:07;;;;;;;10.95;5.75;;;5.50;99.90;;;;;;5109638;28;20059;-71
2024/01/06 09:03:33;;;;;;;11.68;4.53;;;5.40;99.90;;;;;;5112508;28;20050;-71
2024/01/06 09:05:59;;;;;;;7.57;4.28;;;5.40;99.90;;;;;;5112773;28;20433;-71
2024/01/06 09:08:24;;;;;;;9.23;4.72;;;5.30;99.90;;;;;;5111367;28;20031;-71
2024/01/06 09:10:51;;;;;;;6.63;4.28;;;5.30;99.90;;;;;;5098874;28;20036;-70
2024/01/06 09:13:18;;;;;;;8.40;4.70;;;5.20;99.90;;;;;;5094827;28;20027;-71
2024/01/06 09:15:45;;;;;;;7.35;4.63;;;5.20;99.90;;;;;;5111890;28;20552;-70
2024/01/06 09:18:11;;;;;;;10.10;4.38;;;5.20;99.90;;;;;;5109773;28;20111;-70
2024/01/06 09:20:37;;;;;;;8.32;4.57;;;5.30;99.90;;;;;;5111523;28;20069;-71
2024/01/06 09:23:02;;;;;;;7.70;4.90;;;5.30;99.90;;;;;;5093768;28;20020;-71
2024/01/06 09:25:29;;;;;;;7.60;4.70;;;5.40;99.90;;;;;;5111959;28;20032;-71
2024/01/06 09:27:55;;;;;;;7.72;4.93;;;5.40;99.90;;;;;;5112142;28;20031;-70
2024/01/06 09:30:21;;;;;;;10.82;5.25;;;5.40;99.90;;;;;;5115736;28;20030;-70
2024/01/06 09:32:46;;;;;;;8.55;4.97;;;5.50;99.90;;;;;;5116045;28;20032;-70
2024/01/06 09:35:12;;;;;;;8.35;5.35;;;5.60;99.90;;;;;;5116374;28;20445;-72
2024/01/06 09:37:37;;;;;;;9.43;4.78;;;5.60;99.90;;;;;;5116167;28;20027;-71
2024/01/06 09:40:03;;;;;;;12.60;5.00;;;5.70;99.90;;;;;;5116289;28;20015;-70
2024/01/06 09:43:19;;;;;;;10.00;5.18;;;5.80;99.90;;;;;;5109971;28;20028;-71
2024/01/06 09:45:54;;;;;;;7.75;4.85;;;5.80;99.90;;;;;;5095145;28;20027;-71
2024/01/06 09:48:28;;;;;;;11.05;5.43;;;5.90;99.90;;;;;;5114171;28;20088;-72
2024/01/06 09:50:56;;;;;;;10.80;4.82;;;6.10;99.90;;;;;;5114914;28;20038;-71
2024/01/06 09:53:28;;;;;;;11.52;4.80;;;6.10;99.90;;;;;;5114126;28;20088;-71
2024/01/06 09:55:54;;;;;;;9.65;5.35;;;6.20;99.90;;;;;;5115386;28;20043;-71
2024/01/06 09:58:20;;;;;;;8.40;4.88;;;6.10;99.90;;;;;;5114636;28;20470;-71
2024/01/06 10:00:49;;;;;;;7.72;4.88;;;6.10;99.90;;;;;;5115584;28;20020;-71
2024/01/06 10:03:14;;;;;;;11.82;5.30;;;6.00;99.90;;;;;;5114848;28;20039;-71
2024/01/06 10:05:40;;;;;;;10.98;5.20;;;5.90;99.90;;;;;;5108910;28;20039;-71
2024/01/06 10:08:06;;;;;;;10.43;4.68;;;5.80;99.90;;;;;;5114703;28;20058;-71
2024/01/06 10:10:34;;;;;;;9.73;5.10;;;5.80;99.90;;;;;;5108558;28;20034;-71
2024/01/06 10:13:00;;;;;;;15.52;6.40;;;5.70;99.90;;;;;;5114682;28;20110;-72
2024/01/06 10:15:25;;;;;;;12.10;5.78;;;5.70;99.90;;;;;;5114319;28;20126;-73
2024/01/06 10:17:54;;;;;;;10.00;5.85;;;5.80;99.90;;;;;;5104415;28;20389;-71
2024/01/06 10:20:21;;;;;;;11.20;5.97;;;5.80;99.90;;;;;;5114617;28;20777;-71
2024/01/06 10:22:47;;;;;;;12.25;5.95;;;5.90;99.90;;;;;;5114271;28;20019;-71
2024/01/06 10:25:13;;;;;;;11.50;5.57;;;5.90;99.90;;;;;;5104195;28;20042;-71
2024/01/06 10:27:41;;;;;;;11.80;5.60;;;6.00;99.90;;;;;;5111988;28;20018;-72
2024/01/06 10:30:08;;;;;;;13.13;6.13;;;6.00;99.90;;;;;;5114481;28;20224;-71
2024/01/06 10:32:36;;;;;;;16.15;6.38;;;6.20;99.90;;;;;;5114206;28;20023;-71
2024/01/06 10:35:03;;;;;;;12.52;6.15;;;6.30;99.90;;;;;;5111302;28;20040;-71
2024/01/06 10:37:29;;;;;;;10.93;5.88;;;6.40;99.90;;;;;;5114862;28;20491;-71
2024/01/06 10:40:10;;;;;;;12.63;5.55;;;6.50;99.90;;;;;;5115048;28;20028;-71
2024/01/06 10:42:39;;;;;;;8.02;4.07;;;6.50;99.90;;;;;;5094842;28;20089;-71
2024/01/06 10:45:08;;;;;;;5.85;3.67;;;6.40;99.90;;;;;;5109654;28;20035;-71
2024/01/06 10:47:35;;;;;;;9.57;3.70;;;6.30;99.90;;;;;;5114705;28;20472;-72
2024/01/06 10:50:01;;;;;;;11.27;4.53;;;6.20;99.90;;;;;;5114630;28;20035;-71
2024/01/06 10:52:27;;;;;;;7.38;3.70;;;6.20;99.90;;;;;;5116514;27;20028;-72
2024/01/06 10:54:54;;;;;;;7.28;3.47;;;6.20;99.90;;;;;;5114727;27;20093;-71
2024/01/06 10:57:21;;;;;;;6.30;3.22;;;6.40;99.90;;;;;;5109655;27;20099;-71
2024/01/06 10:59:49;;;;;;;7.78;3.05;;;6.50;99.90;;;;;;5121634;27;20103;-72
2024/01/06 11:02:16;;;;;;;8.13;2.92;;;6.80;99.90;;;;;;5126041;27;20023;-71
2024/01/06 11:04:47;;;;;;;3.92;2.38;;;7.40;99.90;;;;;;5118866;27;20494;-71
2024/01/06 11:07:17;;;;;;;6.50;2.55;;;7.80;99.90;;;;;;5122363;27;20030;-71
2024/01/06 11:10:07;;;;;;;7.18;2.42;;;8.00;99.90;;;;;;5124973;27;20019;-71
2024/01/06 11:12:33;;;;;;;5.43;2.70;;;8.00;99.90;;;;;;5114487;27;20031;-71
2024/01/06 11:14:58;;;;;;;8.90;2.80;;;7.90;99.90;;;;;;5112721;27;20047;-71
2024/01/06 11:17:58;;;;;;;6.43;2.60;;;7.80;99.90;;;;;;5114217;27;20430;-71
2024/01/06 11:20:29;;;;;;;4.60;2.42;;;7.60;99.90;;;;;;5090170;28;20441;-71
2024/01/06 11:23:02;;;;;;;5.70;2.40;;;7.40;99.90;;;;;;5113222;27;20032;-71
2024/01/06 11:25:28;;;;;;;6.07;2.60;;;7.30;99.90;;;;;;5116132;27;20027;-72
2024/01/06 11:27:57;;;;;;;3.42;2.13;;;7.20;99.90;;;;;;5116960;27;20036;-71
2024/01/06 11:30:24;;;;;;;3.75;2.25;;;7.20;99.90;;;;;;5106871;28;20055;-70
2024/01/06 11:32:58;;;;;;;4.65;2.33;;;7.00;99.90;;;;;;5113495;28;20044;-71
2024/01/06 11:35:29;;;;;;;3.85;2.58;;;6.90;99.90;;;;;;5105342;28;20099;-71
2024/01/06 11:37:58;;;;;;;6.93;2.20;;;6.90;99.90;;;;;;5112649;28;20034;-71
2024/01/06 11:40:24;;;;;;;2.53;1.90;;;7.00;99.90;;;;;;5110860;28;20047;-71
2024/01/06 11:43:05;;;;;;;5.18;2.00;;;6.90;99.90;;;;;;5112703;28;20051;-70
2024/01/06 11:45:31;;;;;;;5.35;2.13;;;7.00;99.90;;;;;;5111183;28;20034;-71
2024/01/06 11:48:03;;;;;;;4.68;2.45;;;7.00;99.90;;;;;;5112290;28;20027;-70
2024/01/06 11:50:32;;;;;;;5.80;2.77;;;6.90;99.90;;;;;;5113474;28;20100;-70
2024/01/06 11:52:59;;;;;;;2.90;1.95;;;6.90;99.90;;;;;;5110228;28;20035;-70
2024/01/06 11:55:27;;;;;;;5.45;2.05;;;6.80;99.90;;;;;;5111486;28;20055;-71
2024/01/06 11:57:54;;;;;;;7.72;2.28;;;6.60;99.90;;;;;;5113233;28;20136;-70
2024/01/06 12:00:20;;;;;;;5.35;2.47;;;6.40;99.90;;;;;;5108667;28;20068;-70
2024/01/06 12:02:45;;;;;;;5.82;2.72;;;6.20;99.90;;;;;;5110152;28;20023;-71
2024/01/06 12:05:18;;;;;;;5.50;2.65;;;6.10;99.90;;;;;;5107710;28;20052;-71
2024/01/06 12:07:53;;;;;;;7.00;2.80;;;6.00;99.90;;;;;;5112803;28;20034;-72
2024/01/06 12:10:21;;;;;;;6.72;3.00;;;6.00;99.90;;;;;;5111268;28;20047;-72
2024/01/06 12:13:08;;;;;;;4.85;2.53;;;6.00;99.90;;;;;;5100562;28;20040;-72
2024/01/06 12:15:34;;;;;;;10.20;3.42;;;6.00;99.90;;;;;;5093810;28;20423;-72
2024/01/06 12:18:08;;;;;;;7.18;3.20;;;6.00;99.90;;;;;;5089601;28;20465;-73
2024/01/06 12:20:33;;;;;;;8.05;3.78;;;5.90;99.90;;;;;;5111368;28;20028;-72
2024/01/06 12:23:00;;;;;;;7.05;3.08;;;5.90;99.90;;;;;;5103580;28;20041;-72
2024/01/06 12:25:27;;;;;;;6.13;3.42;;;5.80;99.90;;;;;;5106239;28;20065;-72
2024/01/06 12:27:53;;;;;;;5.65;3.65;;;5.90;99.90;;;;;;5109092;28;20045;-72
2024/01/06 12:30:20;;;;;;;7.63;3.40;;;5.90;99.90;;;;;;5108338;28;20059;-71
2024/01/06 12:32:50;;;;;;;5.72;3.25;;;5.90;99.90;;;;;;5110453;28;20024;-73
2024/01/06 12:35:16;;;;;;;5.72;3.13;;;5.80;99.90;;;;;;5110763;28;20023;-73
2024/01/06 12:37:43;;;;;;;7.05;3.90;;;5.80;99.90;;;;;;5109864;28;20032;-72
2024/01/06 12:40:10;;;;;;;5.20;2.97;;;5.60;99.90;;;;;;5103556;28;20031;-72
2024/01/06 12:42:36;;;;;;;5.25;3.75;;;5.50;99.90;;;;;;5109014;28;20051;-71
2024/01/06 12:45:02;;;;;;;8.60;3.92;;;5.50;99.90;;;;;;5108708;28;20094;-72
2024/01/06 12:47:28;;;;;;;4.22;3.47;;;5.40;99.90;;;;;;5110007;28;20135;-72